• Join FlightAware (Why Join?)
  • Login
  • US Flag 
01:33PM EDT


 

Airport Tracker/Info


-or-


 

Live Flight TrackerFlight Track Log ✈ N858HP ✈ 05-May-2012 ✈ KDWH

Flight Track Log - Related Links

Times and Time Zones

All times are in EDT time to prevent confusion due to time zone crossing. See the N858HP flight status page for this flight to view local times or setup timezone preferences in your user account.

Time Position Orientation Groundspeed Altitude Reporting Facility
EDT Latitude Longitude Course Direction KTS MPH feet Rate Location/Type
10:51AM 31.1136 -94.9661 22° Northeast 162 186 3,300  Level Houston Center
10:56AM 31.3225 -94.8686 21° North 157 181 3,000 -60 Descending Houston Center
10:57AM 31.3625 -94.8503 22° Northeast 152 175 3,000  Level Houston Center
10:58AM 31.4006 -94.8322 356° North 152 175 3,000  Level Houston Center
10:59AM 31.4400 -94.8358 337° Northwest 146 168 3,000 -60 Level Houston Center
11:00AM 31.4772 -94.8542 275° West 141 162 2,900 -300 Descending Houston Center
11:01AM 31.4803 -94.8956 148° Southeast 108 124 2,500 -420 Descending Houston Center
11:02AM 31.4494 -94.8728 120° Southeast 40 46 2,100 -240 Descending Houston Center
11:03AM 31.4297 -94.8331 159° South 71 82 2,100  Level Houston Center
11:04AM 31.3944 -94.8172 165° South 108 124 2,100 -60 Level Houston Center
11:05AM 31.3614 -94.8067 161° South 123 142 2,000 -60 Descending Houston Center
11:06AM 31.3283 -94.7933 159° South 129 148 2,000 -240 Level Houston Center
11:07AM 31.2994 -94.7803 159° South 124 143 1,600 -480 Descending Houston Center
11:08AM 31.2767 -94.7700 158° South 107 123 1,100 -480 Descending Houston Center
11:09AM 31.2539 -94.7594 160° South 96 110 700 -420 Descending Houston Center
11:10AM 31.2292 -94.7489 162° South 96 110 300 300 Descending Houston Center
11:11AM 31.2086 -94.7411 159° South 96 110 1,400 780 Climbing Houston Center
11:12AM 31.1797 -94.7281 161° South 96 110 1,900 360 Climbing Houston Center
11:13AM 31.1403 -94.7122 161° South 122 140 2,200 360 Climbing Houston Center
11:14AM 31.1011 -94.6967 159° South 140 161 2,700 420 Climbing Houston Center
11:15AM 31.0597 -94.6783 166° South 145 167 3,100 420 Climbing Houston Center
11:16AM 31.0225 -94.6675 215° Southwest 145 167 3,600 420 Climbing Houston Center
11:17AM 30.9906 -94.6933 223° Southwest 138 159 4,000 180 Climbing Houston Center
11:18AM 30.9606 -94.7261 217° Southwest 138 159 4,000  Level Houston Center
11:19AM 30.9286 -94.7542 219° Southwest 151 174 4,100  Climbing Houston Center
11:20AM 30.8967 -94.7847 219° Southwest 151 174 4,100  Level Houston Center
11:21AM 30.8669 -94.8128 216° Southwest 151 174 4,100  Level Houston Center
11:22AM 30.8369 -94.8383 217° Southwest 151 174 4,100  Level Houston Center
11:23AM 30.8072 -94.8642 219° Southwest 146 168 4,100  Level Houston Center
11:24AM 30.7772 -94.8922 221° Southwest 146 168 4,100  Level Houston Center
11:25AM 30.7494 -94.9203 215° Southwest 136 157 4,100  Level Houston Center
11:26AM 30.7239 -94.9411 232° Southwest 135 155 4,100  Level Houston Center
11:26AM 30.7111 -94.9600 209° Southwest 135 155 4,100  Level Houston Center
11:27AM 30.6897 -94.9739 218° Southwest 136 157 4,100  Level Houston Center
11:28AM 30.6619 -94.9994 221° Southwest 136 157 4,100  Level Houston Center
11:29AM 30.6322 -95.0297 219° Southwest 136 157 4,100  Level Houston Center
11:30AM 30.6022 -95.0578 218° Southwest 136 157 4,100 -60 Level Houston Center
11:31AM 30.5744 -95.0833 247° West 136 157 4,000 -300 Descending Houston Center
11:32AM 30.5586 -95.1264 247° West 136 157 3,500 -480 Descending Houston Center
11:33AM 30.5408 -95.1739 247° West 148 170 3,100 -360 Descending Houston Center
11:34AM 30.5294 -95.2047 242° Southwest 149 171 3,000 -120 Descending Houston Center
11:34AM 30.5250 -95.2144 250° West 154 177 3,000  Level Houston Center
11:35AM 30.5161 -95.2428 243° Southwest 129 148 3,000  Level Houston Center
11:36AM 30.5006 -95.2786 247° West 126 145 3,000  Level Houston Center
11:37AM 30.4869 -95.3167 250° West 128 147 3,000  Level Houston Center
11:38AM 30.4756 -95.3522 243° Southwest 119 137 3,000  Level Houston Center
11:39AM 30.4578 -95.3925 247° West 125 144 3,000  Level Houston Center
11:40AM 30.4442 -95.4306 247° West 132 152 3,000  Level Houston Center
11:41AM 30.4306 -95.4686 233° Southwest 138 159 3,000  Level Houston Center
11:42AM 30.4044 -95.5086 225° Southwest 135 155 3,000  Level Houston Center
11:43AM 30.3764 -95.5411 230° Southwest 137 158 3,000  Level Houston Center
11:44AM 30.3525 -95.5739 209° Southwest 134 154 3,000 -240 Level Houston Center
11:45AM 30.3206 -95.5944 170° South 140 161 2,600 -480 Descending Houston Center
11:46AM 30.2769 -95.5856 178° South 143 165 2,100 -300 Descending Houston Center
11:47AM 30.2417 -95.5842 170° South 120 138 2,000 -60 Descending Houston Center
11:48AM 30.2125 -95.5783 174° South 106 122 2,000  Level Houston Center
11:49AM 30.1792 -95.5744 172° South 132 152 2,000  Level Houston Center
11:50AM 30.1419 -95.5683 171° South 135 155 2,000 -420 Level Houston Center
11:51AM 30.1086 -95.5622 174° South 121 139 1,200 -780 Descending Houston Center
11:52AM 30.0817 -95.5589 166° South 96 110 600 -600 Descending Houston Center
11:59AM 30.0500 -95.5500 349° North  Level FlightAware Approximate
12:00PM 30.0834 -95.5578 169° South  Level Estimated
12:01PM 30.0500 -95.5500 349° North  Level FlightAware Approximate
12:02PM 30.0834 -95.5578 169° South  Level Estimated
12:03PM 30.0500 -95.5500 349° North  Level FlightAware Approximate
12:04PM 30.0834 -95.5578 169° South  Level Estimated
12:05PM 30.0500 -95.5500 349° North  Level FlightAware Approximate
12:06PM 30.0834 -95.5578 169° South  Level Estimated
12:07PM 30.0500 -95.5500 349° North  Level FlightAware Approximate
12:08PM 30.0834 -95.5578 169° South  Level Estimated
12:09PM 30.0500 -95.5500 169° South  Level FlightAware Approximate